sensor_id;sensor_type;location;lat;lon;timestamp;pressure;altitude;pressure_sealevel;temperature;humidity
51928;BME280;37953;52.806;18.270;2023-08-20T00:02:01;100866.66;;;24.34;100.00
51928;BME280;37953;52.806;18.270;2023-08-20T00:04:30;100867.56;;;24.34;100.00
51928;BME280;37953;52.806;18.270;2023-08-20T00:07:01;100864.03;;;24.34;100.00
51928;BME280;37953;52.806;18.270;2023-08-20T00:09:28;100856.28;;;24.29;100.00
51928;BME280;37953;52.806;18.270;2023-08-20T00:11:55;100864.13;;;24.32;100.00
51928;BME280;37953;52.806;18.270;2023-08-20T00:14:54;100868.19;;;24.39;100.00
51928;BME280;37953;52.806;18.270;2023-08-20T00:17:21;100863.88;;;24.37;100.00
51928;BME280;37953;52.806;18.270;2023-08-20T00:19:48;100865.69;;;24.36;100.00
51928;BME280;37953;52.806;18.270;2023-08-20T00:22:15;100864.75;;;24.37;100.00
51928;BME280;37953;52.806;18.270;2023-08-20T00:24:42;100876.16;;;24.39;100.00
51928;BME280;37953;52.806;18.270;2023-08-20T00:27:08;100868.19;;;24.39;100.00
51928;BME280;37953;52.806;18.270;2023-08-20T00:29:34;100871.69;;;24.40;100.00
51928;BME280;37953;52.806;18.270;2023-08-20T00:32:00;100868.19;;;24.39;100.00
51928;BME280;37953;52.806;18.270;2023-08-20T00:34:26;100861.06;;;24.40;100.00
51928;BME280;37953;52.806;18.270;2023-08-20T00:36:52;100856.63;;;24.41;100.00
51928;BME280;37953;52.806;18.270;2023-08-20T00:39:18;100852.25;;;24.39;100.00
51928;BME280;37953;52.806;18.270;2023-08-20T00:41:44;100859.38;;;24.39;100.00
51928;BME280;37953;52.806;18.270;2023-08-20T00:44:10;100859.44;;;24.37;100.00
51928;BME280;37953;52.806;18.270;2023-08-20T00:46:36;100857.63;;;24.38;100.00
51928;BME280;37953;52.806;18.270;2023-08-20T00:49:02;100854.91;;;24.39;100.00
51928;BME280;37953;52.806;18.270;2023-08-20T00:51:32;100862.03;;;24.39;100.00
51928;BME280;37953;52.806;18.270;2023-08-20T00:53:59;100860.28;;;24.38;100.00
51928;BME280;37953;52.806;18.270;2023-08-20T00:56:25;100866.59;;;24.35;100.00
51928;BME280;37953;52.806;18.270;2023-08-20T00:58:53;100860.50;;;24.33;100.00
51928;BME280;37953;52.806;18.270;2023-08-20T01:01:21;100861.47;;;24.32;100.00
51928;BME280;37953;52.806;18.270;2023-08-20T01:03:47;100864.19;;;24.31;100.00
51928;BME280;37953;52.806;18.270;2023-08-20T01:11:57;100874.25;;;24.24;100.00
51928;BME280;37953;52.806;18.270;2023-08-20T01:14:24;100875.31;;;24.20;100.00
51928;BME280;37953;52.806;18.270;2023-08-20T01:16:50;100879.19;;;24.13;100.00
51928;BME280;37953;52.806;18.270;2023-08-20T01:19:18;100880.41;;;24.06;100.00
51928;BME280;37953;52.806;18.270;2023-08-20T01:30:12;100880.75;;;23.79;100.00
51928;BME280;37953;52.806;18.270;2023-08-20T01:32:39;100869.63;;;23.71;100.00
51928;BME280;37953;52.806;18.270;2023-08-20T01:35:16;100872.34;;;23.69;100.00
51928;BME280;37953;52.806;18.270;2023-08-20T01:37:42;100869.75;;;23.68;100.00
51928;BME280;37953;52.806;18.270;2023-08-20T01:40:08;100873.41;;;23.65;100.00
51928;BME280;37953;52.806;18.270;2023-08-20T01:42:36;100873.41;;;23.65;100.00
51928;BME280;37953;52.806;18.270;2023-08-20T01:45:06;100877.84;;;23.65;100.00
51928;BME280;37953;52.806;18.270;2023-08-20T01:47:33;100877.19;;;23.60;100.00
51928;BME280;37953;52.806;18.270;2023-08-20T01:50:06;100877.41;;;23.55;100.00
51928;BME280;37953;52.806;18.270;2023-08-20T01:52:31;100874.94;;;23.50;100.00
51928;BME280;37953;52.806;18.270;2023-08-20T01:54:58;100869.66;;;23.50;100.00
51928;BME280;37953;52.806;18.270;2023-08-20T01:57:23;100876.81;;;23.48;100.00
51928;BME280;37953;52.806;18.270;2023-08-20T01:59:49;100876.88;;;23.47;100.00
51928;BME280;37953;52.806;18.270;2023-08-20T02:02:15;100883.91;;;23.48;100.00
51928;BME280;37953;52.806;18.270;2023-08-20T02:04:41;100883.03;;;23.47;100.00
51928;BME280;37953;52.806;18.270;2023-08-20T02:07:07;100888.34;;;23.47;100.00
51928;BME280;37953;52.806;18.270;2023-08-20T02:09:33;100891.88;;;23.48;100.00
51928;BME280;37953;52.806;18.270;2023-08-20T02:11:59;100889.13;;;23.49;100.00
51928;BME280;37953;52.806;18.270;2023-08-20T02:14:25;100890.00;;;23.50;100.00
51928;BME280;37953;52.806;18.270;2023-08-20T02:16:54;100885.56;;;23.50;100.00
51928;BME280;37953;52.806;18.270;2023-08-20T02:19:20;100887.28;;;23.51;100.00
51928;BME280;37953;52.806;18.270;2023-08-20T02:21:46;100881.06;;;23.52;100.00
51928;BME280;37953;52.806;18.270;2023-08-20T02:24:12;100883.69;;;23.52;100.00
51928;BME280;37953;52.806;18.270;2023-08-20T02:26:38;100883.69;;;23.52;100.00
51928;BME280;37953;52.806;18.270;2023-08-20T02:29:04;100891.50;;;23.55;100.00
51928;BME280;37953;52.806;18.270;2023-08-20T02:31:31;100885.28;;;23.56;100.00
51928;BME280;37953;52.806;18.270;2023-08-20T02:33:57;100886.16;;;23.57;100.00
51928;BME280;37953;52.806;18.270;2023-08-20T02:36:23;100887.88;;;23.58;100.00
51928;BME280;37953;52.806;18.270;2023-08-20T02:38:49;100891.38;;;23.58;100.00
51928;BME280;37953;52.806;18.270;2023-08-20T02:41:15;100894.09;;;23.57;100.00
51928;BME280;37953;52.806;18.270;2023-08-20T02:43:41;100895.91;;;23.56;100.00
51928;BME280;37953;52.806;18.270;2023-08-20T02:46:07;100890.59;;;23.56;100.00
51928;BME280;37953;52.806;18.270;2023-08-20T02:48:33;100894.16;;;23.55;100.00
51928;BME280;37953;52.806;18.270;2023-08-20T02:50:59;100890.66;;;23.55;100.00
51928;BME280;37953;52.806;18.270;2023-08-20T02:53:25;100890.72;;;23.53;100.00
51928;BME280;37953;52.806;18.270;2023-08-20T02:55:51;100889.91;;;23.51;100.00
51928;BME280;37953;52.806;18.270;2023-08-20T02:58:17;100886.41;;;23.51;100.00
51928;BME280;37953;52.806;18.270;2023-08-20T03:00:43;100877.53;;;23.52;100.00
51928;BME280;37953;52.806;18.270;2023-08-20T03:03:11;100880.19;;;23.52;100.00
51928;BME280;37953;52.806;18.270;2023-08-20T03:05:37;100881.16;;;23.49;100.00
51928;BME280;37953;52.806;18.270;2023-08-20T03:08:04;100883.03;;;23.47;100.00
51928;BME280;37953;52.806;18.270;2023-08-20T03:10:30;100879.66;;;23.44;100.00
51928;BME280;37953;52.806;18.270;2023-08-20T03:13:03;100881.38;;;23.45;100.00
51928;BME280;37953;52.806;18.270;2023-08-20T03:15:30;100894.72;;;23.43;100.00
51928;BME280;37953;52.806;18.270;2023-08-20T03:17:59;100892.13;;;23.42;100.00
51928;BME280;37953;52.806;18.270;2023-08-20T03:20:25;100893.06;;;23.41;100.00
51928;BME280;37953;52.806;18.270;2023-08-20T03:22:51;100889.53;;;23.40;100.00
51928;BME280;37953;52.806;18.270;2023-08-20T03:25:17;100895.69;;;23.41;100.00
51928;BME280;37953;52.806;18.270;2023-08-20T03:27:43;100900.28;;;23.37;100.00
51928;BME280;37953;52.806;18.270;2023-08-20T03:30:10;100905.59;;;23.37;100.00
51928;BME280;37953;52.806;18.270;2023-08-20T03:32:36;100905.59;;;23.37;100.00
51928;BME280;37953;52.806;18.270;2023-08-20T03:35:02;100903.00;;;23.35;100.00
51928;BME280;37953;52.806;18.270;2023-08-20T03:37:28;100909.16;;;23.36;100.00
51928;BME280;37953;52.806;18.270;2023-08-20T03:39:54;100914.47;;;23.36;100.00
51928;BME280;37953;52.806;18.270;2023-08-20T03:42:20;100914.47;;;23.36;100.00
51928;BME280;37953;52.806;18.270;2023-08-20T03:44:46;100918.91;;;23.35;100.00
51928;BME280;37953;52.806;18.270;2023-08-20T03:47:12;100924.28;;;23.34;100.00
51928;BME280;37953;52.806;18.270;2023-08-20T03:49:38;100926.13;;;23.32;100.00
51928;BME280;37953;52.806;18.270;2023-08-20T03:52:04;100920.81;;;23.32;100.00
51928;BME280;37953;52.806;18.270;2023-08-20T03:54:33;100914.66;;;23.31;100.00
51928;BME280;37953;52.806;18.270;2023-08-20T03:56:59;100916.47;;;23.31;100.00
51928;BME280;37953;52.806;18.270;2023-08-20T03:59:25;100915.59;;;23.30;100.00
51928;BME280;37953;52.806;18.270;2023-08-20T04:01:51;100914.72;;;23.30;100.00
51928;BME280;37953;52.806;18.270;2023-08-20T04:04:17;100920.88;;;23.30;100.00
51928;BME280;37953;52.806;18.270;2023-08-20T04:06:43;100913.88;;;23.29;100.00
51928;BME280;37953;52.806;18.270;2023-08-20T04:09:09;100923.53;;;23.30;100.00
51928;BME280;37953;52.806;18.270;2023-08-20T04:11:35;100921.84;;;23.29;100.00
51928;BME280;37953;52.806;18.270;2023-08-20T04:14:01;100923.69;;;23.27;100.00
51928;BME280;37953;52.806;18.270;2023-08-20T04:16:29;100929.78;;;23.29;100.00
51928;BME280;37953;52.806;18.270;2023-08-20T04:18:55;100939.44;;;23.30;100.00
51928;BME280;37953;52.806;18.270;2023-08-20T04:21:22;100935.09;;;23.29;100.00
51928;BME280;37953;52.806;18.270;2023-08-20T04:23:51;100936.78;;;23.30;100.00
51928;BME280;37953;52.806;18.270;2023-08-20T04:26:17;100927.13;;;23.29;100.00
51928;BME280;37953;52.806;18.270;2023-08-20T04:28:43;100930.56;;;23.31;100.00
51928;BME280;37953;52.806;18.270;2023-08-20T04:31:09;100932.38;;;23.31;100.00
51928;BME280;37953;52.806;18.270;2023-08-20T04:33:34;100936.78;;;23.30;100.00
51928;BME280;37953;52.806;18.270;2023-08-20T04:36:01;100939.38;;;23.32;100.00
51928;BME280;37953;52.806;18.270;2023-08-20T04:38:26;100938.53;;;23.31;100.00
51928;BME280;37953;52.806;18.270;2023-08-20T04:40:52;100937.59;;;23.32;100.00
51928;BME280;37953;52.806;18.270;2023-08-20T04:43:18;100937.53;;;23.34;100.00
51928;BME280;37953;52.806;18.270;2023-08-20T04:45:44;100937.53;;;23.34;100.00
51928;BME280;37953;52.806;18.270;2023-08-20T04:48:10;100934.78;;;23.37;100.00
51928;BME280;37953;52.806;18.270;2023-08-20T04:50:36;100939.13;;;23.38;100.00
51928;BME280;37953;52.806;18.270;2023-08-20T04:53:02;100938.22;;;23.39;100.00
51928;BME280;37953;52.806;18.270;2023-08-20T04:55:28;100937.41;;;23.37;100.00
51928;BME280;37953;52.806;18.270;2023-08-20T04:57:54;100940.78;;;23.41;100.00
51928;BME280;37953;52.806;18.270;2023-08-20T05:00:21;100930.31;;;23.37;100.00
51928;BME280;37953;52.806;18.270;2023-08-20T05:02:47;100942.47;;;23.43;100.00
51928;BME280;37953;52.806;18.270;2023-08-20T05:05:14;100938.06;;;23.42;100.00
51928;BME280;37953;52.806;18.270;2023-08-20T05:07:40;100946.75;;;23.46;100.00
51928;BME280;37953;52.806;18.270;2023-08-20T05:10:07;100946.63;;;23.49;100.00
51928;BME280;37953;52.806;18.270;2023-08-20T05:12:34;100950.06;;;23.51;100.00
51928;BME280;37953;52.806;18.270;2023-08-20T05:15:00;100946.41;;;23.53;100.00
51928;BME280;37953;52.806;18.270;2023-08-20T05:17:26;100947.19;;;23.55;100.00
51928;BME280;37953;52.806;18.270;2023-08-20T05:19:52;100945.44;;;23.56;100.00
51928;BME280;37953;52.806;18.270;2023-08-20T05:22:18;100947.09;;;23.58;100.00
51928;BME280;37953;52.806;18.270;2023-08-20T05:24:44;100943.44;;;23.61;100.00
51928;BME280;37953;52.806;18.270;2023-08-20T05:27:15;100945.06;;;23.64;100.00
51928;BME280;37953;52.806;18.270;2023-08-20T05:29:43;100947.63;;;23.67;100.00
51928;BME280;37953;52.806;18.270;2023-08-20T05:32:08;100951.06;;;23.69;100.00
51928;BME280;37953;52.806;18.270;2023-08-20T05:34:35;100948.25;;;23.72;100.00
51928;BME280;37953;52.806;18.270;2023-08-20T05:37:14;100956.94;;;23.77;100.00
51928;BME280;37953;52.806;18.270;2023-08-20T05:39:43;100958.63;;;23.78;100.00
51928;BME280;37953;52.806;18.270;2023-08-20T05:42:09;100963.88;;;23.80;100.00
51928;BME280;37953;52.806;18.270;2023-08-20T05:44:36;100963.78;;;23.81;100.00
51928;BME280;37953;52.806;18.270;2023-08-20T05:47:02;100960.16;;;23.84;100.00
51928;BME280;37953;52.806;18.270;2023-08-20T05:49:28;100964.47;;;23.86;100.00
51928;BME280;37953;52.806;18.270;2023-08-20T05:51:54;100966.09;;;23.89;100.00
51928;BME280;37953;52.806;18.270;2023-08-20T05:54:20;100966.03;;;23.90;100.00
51928;BME280;37953;52.806;18.270;2023-08-20T05:56:46;100970.34;;;23.93;100.00
51928;BME280;37953;52.806;18.270;2023-08-20T05:59:12;100972.84;;;23.96;100.00
51928;BME280;37953;52.806;18.270;2023-08-20T06:01:38;100971.88;;;23.98;100.00
51928;BME280;37953;52.806;18.270;2023-08-20T06:04:04;100966.41;;;24.02;100.00
51928;BME280;37953;52.806;18.270;2023-08-20T06:06:30;100974.16;;;24.06;100.00
51928;BME280;37953;52.806;18.270;2023-08-20T06:08:56;100974.91;;;24.10;100.00
51928;BME280;37953;52.806;18.270;2023-08-20T06:11:22;100965.00;;;24.13;100.00
51928;BME280;37953;52.806;18.270;2023-08-20T06:13:48;100968.34;;;24.17;100.00
51928;BME280;37953;52.806;18.270;2023-08-20T06:16:14;100970.09;;;24.18;100.00
51928;BME280;37953;52.806;18.270;2023-08-20T06:18:40;100973.38;;;24.23;100.00
51928;BME280;37953;52.806;18.270;2023-08-20T06:21:05;100974.13;;;24.27;100.00
51928;BME280;37953;52.806;18.270;2023-08-20T06:23:32;100969.53;;;24.30;100.00
51928;BME280;37953;52.806;18.270;2023-08-20T06:25:57;100970.31;;;24.32;100.00
51928;BME280;37953;52.806;18.270;2023-08-20T06:28:24;100974.56;;;24.36;100.00
51928;BME280;37953;52.806;18.270;2023-08-20T06:30:49;100975.25;;;24.40;100.00
51928;BME280;37953;52.806;18.270;2023-08-20T06:33:15;100973.41;;;24.42;100.00
51928;BME280;37953;52.806;18.270;2023-08-20T06:35:41;100969.72;;;24.45;100.00
51928;BME280;37953;52.806;18.270;2023-08-20T06:38:08;100972.25;;;24.48;100.00
51928;BME280;37953;52.806;18.270;2023-08-20T06:40:34;100970.41;;;24.50;100.00
51928;BME280;37953;52.806;18.270;2023-08-20T06:43:00;100974.66;;;24.54;100.00
51928;BME280;37953;52.806;18.270;2023-08-20T06:45:26;100980.69;;;24.57;100.00
51928;BME280;37953;52.806;18.270;2023-08-20T06:47:52;100980.53;;;24.61;100.00
51928;BME280;37953;52.806;18.270;2023-08-20T06:50:17;100983.91;;;24.64;100.00
51928;BME280;37953;52.806;18.270;2023-08-20T06:52:43;100981.09;;;24.67;100.00
51928;BME280;37953;52.806;18.270;2023-08-20T06:55:09;100985.31;;;24.71;100.00
51928;BME280;37953;52.806;18.270;2023-08-20T06:57:35;100990.50;;;24.74;100.00
51928;BME280;37953;52.806;18.270;2023-08-20T07:00:01;100986.00;;;24.76;100.00
51928;BME280;37953;52.806;18.270;2023-08-20T07:02:30;100984.88;;;24.81;100.00
51928;BME280;37953;52.806;18.270;2023-08-20T07:04:56;100990.97;;;24.83;100.00
51928;BME280;37953;52.806;18.270;2023-08-20T07:07:22;100987.34;;;24.85;100.00
51928;BME280;37953;52.806;18.270;2023-08-20T07:09:48;100989.81;;;24.88;100.00
51928;BME280;37953;52.806;18.270;2023-08-20T07:12:14;100993.19;;;24.92;100.00
51928;BME280;37953;52.806;18.270;2023-08-20T07:14:40;100994.84;;;24.94;100.00
51928;BME280;37953;52.806;18.270;2023-08-20T07:17:06;101000.00;;;24.97;100.00
51928;BME280;37953;52.806;18.270;2023-08-20T07:19:31;101002.47;;;25.02;100.00
51928;BME280;37953;52.806;18.270;2023-08-20T07:21:57;100997.03;;;25.04;100.00
51928;BME280;37953;52.806;18.270;2023-08-20T07:24:23;100995.94;;;25.08;100.00
51928;BME280;37953;52.806;18.270;2023-08-20T07:26:52;100993.16;;;25.11;100.00
51928;BME280;37953;52.806;18.270;2023-08-20T07:29:18;100996.59;;;25.13;100.00
51928;BME280;37953;52.806;18.270;2023-08-20T07:31:44;100987.59;;;25.15;100.00
51928;BME280;37953;52.806;18.270;2023-08-20T07:34:10;100992.75;;;25.18;100.00
51928;BME280;37953;52.806;18.270;2023-08-20T07:36:36;100988.19;;;25.22;100.00
51928;BME280;37953;52.806;18.270;2023-08-20T07:39:02;100994.22;;;25.26;100.00
51928;BME280;37953;52.806;18.270;2023-08-20T07:41:28;100988.75;;;25.29;100.00
51928;BME280;37953;52.806;18.270;2023-08-20T07:43:54;100990.31;;;25.33;100.00
51928;BME280;37953;52.806;18.270;2023-08-20T07:46:21;100993.63;;;25.38;100.00
51928;BME280;37953;52.806;18.270;2023-08-20T07:48:46;100994.22;;;25.43;100.00
51928;BME280;37953;52.806;18.270;2023-08-20T07:51:13;100991.41;;;25.46;100.00
51928;BME280;37953;52.806;18.270;2023-08-20T07:53:39;100984.06;;;25.51;100.00
51928;BME280;37953;52.806;18.270;2023-08-20T07:56:05;100988.22;;;25.57;100.00
51928;BME280;37953;52.806;18.270;2023-08-20T07:58:31;100980.84;;;25.62;100.00
51928;BME280;37953;52.806;18.270;2023-08-20T08:00:57;100989.28;;;25.70;100.00
51928;BME280;37953;52.806;18.270;2023-08-20T08:03:29;100988.19;;;25.74;100.00
51928;BME280;37953;52.806;18.270;2023-08-20T08:05:56;100990.75;;;25.76;100.00
51928;BME280;37953;52.806;18.270;2023-08-20T08:08:22;100987.69;;;25.84;100.00
51928;BME280;37953;52.806;18.270;2023-08-20T08:10:49;100988.41;;;25.87;100.00
51928;BME280;37953;52.806;18.270;2023-08-20T08:13:17;100981.91;;;25.93;100.00
51928;BME280;37953;52.806;18.270;2023-08-20T08:15:44;100987.94;;;25.96;100.00
51928;BME280;37953;52.806;18.270;2023-08-20T08:18:16;100989.34;;;26.04;100.00
51928;BME280;37953;52.806;18.270;2023-08-20T08:20:42;100989.16;;;26.07;100.00
51928;BME280;37953;52.806;18.270;2023-08-20T08:23:08;100984.44;;;26.12;100.00
51928;BME280;37953;52.806;18.270;2023-08-20T08:25:34;100991.41;;;26.14;100.00
51928;BME280;37953;52.806;18.270;2023-08-20T08:28:00;100983.31;;;26.16;100.00
51928;BME280;37953;52.806;18.270;2023-08-20T08:30:26;100979.72;;;26.17;100.00
51928;BME280;37953;52.806;18.270;2023-08-20T08:32:53;100983.19;;;26.19;100.00
51928;BME280;37953;52.806;18.270;2023-08-20T08:35:20;100988.44;;;26.20;100.00
51928;BME280;37953;52.806;18.270;2023-08-20T08:37:46;100993.66;;;26.22;100.00
51928;BME280;37953;52.806;18.270;2023-08-20T08:40:12;100994.41;;;26.24;100.00
51928;BME280;37953;52.806;18.270;2023-08-20T08:42:40;100986.28;;;26.27;100.00
51928;BME280;37953;52.806;18.270;2023-08-20T08:45:09;100986.03;;;26.32;100.00
51928;BME280;37953;52.806;18.270;2023-08-20T08:47:38;100984.13;;;26.34;100.00
51928;BME280;37953;52.806;18.270;2023-08-20T08:50:05;100994.47;;;26.40;100.00
51928;BME280;37953;52.806;18.270;2023-08-20T08:52:32;100996.16;;;26.41;100.00
51928;BME280;37953;52.806;18.270;2023-08-20T08:54:58;100996.00;;;26.44;100.00
51928;BME280;37953;52.806;18.270;2023-08-20T08:57:24;100993.16;;;26.47;100.00
51928;BME280;37953;52.806;18.270;2023-08-20T08:59:50;100999.28;;;26.49;100.00
51928;BME280;37953;52.806;18.270;2023-08-20T09:02:17;100995.69;;;26.50;100.00
51928;BME280;37953;52.806;18.270;2023-08-20T09:04:51;100988.47;;;26.52;100.00
51928;BME280;37953;52.806;18.270;2023-08-20T09:07:18;100992.81;;;26.53;100.00
51928;BME280;37953;52.806;18.270;2023-08-20T09:09:45;100990.09;;;26.55;100.00
51928;BME280;37953;52.806;18.270;2023-08-20T09:14:45;100998.63;;;26.62;100.00
51928;BME280;37953;52.806;18.270;2023-08-20T09:17:11;101001.09;;;26.65;100.00
51928;BME280;37953;52.806;18.270;2023-08-20T09:19:37;101003.69;;;26.66;100.00
51928;BME280;37953;52.806;18.270;2023-08-20T09:22:03;101011.34;;;26.72;100.00
51928;BME280;37953;52.806;18.270;2023-08-20T09:24:38;101006.59;;;26.77;100.00
51928;BME280;37953;52.806;18.270;2023-08-20T09:27:04;100998.59;;;26.77;100.00
51928;BME280;37953;52.806;18.270;2023-08-20T09:29:32;101004.72;;;26.79;100.00
51928;BME280;37953;52.806;18.270;2023-08-20T09:32:02;101007.22;;;26.83;100.00
51928;BME280;37953;52.806;18.270;2023-08-20T09:34:38;101007.03;;;26.86;100.00
51928;BME280;37953;52.806;18.270;2023-08-20T09:37:09;101008.69;;;26.88;100.00
51928;BME280;37953;52.806;18.270;2023-08-20T09:39:36;101000.69;;;26.88;100.00
51928;BME280;37953;52.806;18.270;2023-08-20T09:42:02;100997.91;;;26.90;100.00
51928;BME280;37953;52.806;18.270;2023-08-20T09:44:33;101016.41;;;26.93;100.00
51928;BME280;37953;52.806;18.270;2023-08-20T09:47:09;101003.09;;;26.93;100.00
51928;BME280;37953;52.806;18.270;2023-08-20T09:49:45;101011.75;;;26.96;100.00
51928;BME280;37953;52.806;18.270;2023-08-20T09:52:16;101009.78;;;27.00;100.00
51928;BME280;37953;52.806;18.270;2023-08-20T09:57:36;101001.59;;;27.03;100.00
51928;BME280;37953;52.806;18.270;2023-08-20T10:00:07;100990.84;;;27.05;100.00
51928;BME280;37953;52.806;18.270;2023-08-20T10:02:38;100996.00;;;27.08;100.00
51928;BME280;37953;52.806;18.270;2023-08-20T10:05:08;100995.88;;;27.09;100.00
51928;BME280;37953;52.806;18.270;2023-08-20T10:07:35;100987.66;;;27.14;100.00
51928;BME280;37953;52.806;18.270;2023-08-20T10:10:04;100984.09;;;27.13;100.00
51928;BME280;37953;52.806;18.270;2023-08-20T10:12:36;100980.31;;;27.17;100.00
51928;BME280;37953;52.806;18.270;2023-08-20T10:15:06;100987.13;;;27.23;100.00
51928;BME280;37953;52.806;18.270;2023-08-20T10:17:33;100989.59;;;27.26;99.30
51928;BME280;37953;52.806;18.270;2023-08-20T10:20:14;100991.91;;;27.32;100.00
51928;BME280;37953;52.806;18.270;2023-08-20T10:22:44;100986.41;;;27.35;99.67
51928;BME280;37953;52.806;18.270;2023-08-20T10:25:29;100981.66;;;27.40;100.00
51928;BME280;37953;52.806;18.270;2023-08-20T10:28:22;100989.38;;;27.45;100.00
51928;BME280;37953;52.806;18.270;2023-08-20T10:31:11;100990.91;;;27.49;100.00
51928;BME280;37953;52.806;18.270;2023-08-20T10:33:55;100985.56;;;27.49;100.00
51928;BME280;37953;52.806;18.270;2023-08-20T10:36:23;100989.97;;;27.50;100.00
51928;BME280;37953;52.806;18.270;2023-08-20T10:38:56;100986.34;;;27.51;100.00
51928;BME280;37953;52.806;18.270;2023-08-20T10:41:37;100992.44;;;27.53;97.74
51928;BME280;37953;52.806;18.270;2023-08-20T10:44:04;100986.25;;;27.53;96.79
51928;BME280;37953;52.806;18.270;2023-08-20T10:46:30;100995.22;;;27.52;95.81
51928;BME280;37953;52.806;18.270;2023-08-20T10:48:57;100992.63;;;27.50;95.41
51928;BME280;37953;52.806;18.270;2023-08-20T10:51:32;100985.56;;;27.49;96.98
51928;BME280;37953;52.806;18.270;2023-08-20T10:56:54;100990.75;;;27.52;97.65
51928;BME280;37953;52.806;18.270;2023-08-20T10:59:28;100988.25;;;27.49;95.56
51928;BME280;37953;52.806;18.270;2023-08-20T11:01:57;100990.06;;;27.49;95.93
51928;BME280;37953;52.806;18.270;2023-08-20T11:04:30;100984.91;;;27.46;96.88
51928;BME280;37953;52.806;18.270;2023-08-20T11:07:00;100988.34;;;27.48;99.47
51928;BME280;37953;52.806;18.270;2023-08-20T11:09:32;100989.88;;;27.52;100.00
51928;BME280;37953;52.806;18.270;2023-08-20T11:11:58;100978.25;;;27.53;100.00
51928;BME280;37953;52.806;18.270;2023-08-20T11:14:24;100981.59;;;27.56;100.00
51928;BME280;37953;52.806;18.270;2023-08-20T11:16:51;100976.16;;;27.58;100.00
51928;BME280;37953;52.806;18.270;2023-08-20T11:19:21;100975.00;;;27.62;100.00
51928;BME280;37953;52.806;18.270;2023-08-20T11:21:49;100978.34;;;27.66;100.00
51928;BME280;37953;52.806;18.270;2023-08-20T11:24:16;100983.63;;;27.67;98.21
51928;BME280;37953;52.806;18.270;2023-08-20T11:26:49;100981.72;;;27.69;95.90
51928;BME280;37953;52.806;18.270;2023-08-20T11:29:15;100978.97;;;27.71;97.95
51928;BME280;37953;52.806;18.270;2023-08-20T11:31:56;100978.75;;;27.74;95.87
51928;BME280;37953;52.806;18.270;2023-08-20T11:34:24;100978.75;;;27.74;96.96
51928;BME280;37953;52.806;18.270;2023-08-20T11:36:50;100966.16;;;27.76;97.92
51928;BME280;37953;52.806;18.270;2023-08-20T11:39:17;100968.63;;;27.79;100.00
51928;BME280;37953;52.806;18.270;2023-08-20T11:41:43;100961.31;;;27.82;100.00
51928;BME280;37953;52.806;18.270;2023-08-20T11:44:10;100968.13;;;27.88;100.00
51928;BME280;37953;52.806;18.270;2023-08-20T11:46:56;100964.88;;;27.97;100.00
51928;BME280;37953;52.806;18.270;2023-08-20T11:49:31;100956.56;;;28.02;99.20
51928;BME280;37953;52.806;18.270;2023-08-20T11:51:57;100958.94;;;28.07;100.00
51928;BME280;37953;52.806;18.270;2023-08-20T11:54:23;100953.34;;;28.11;98.88
51928;BME280;37953;52.806;18.270;2023-08-20T11:56:52;100949.31;;;28.18;100.00
51928;BME280;37953;52.806;18.270;2023-08-20T11:59:20;100955.19;;;28.23;95.66
51928;BME280;37953;52.806;18.270;2023-08-20T12:01:56;100949.59;;;28.28;97.16
51928;BME280;37953;52.806;18.270;2023-08-20T12:04:25;100956.47;;;28.32;93.93
51928;BME280;37953;52.806;18.270;2023-08-20T12:07:02;100958.72;;;28.38;89.84
51928;BME280;37953;52.806;18.270;2023-08-20T12:09:33;100954.03;;;28.42;90.35
51928;BME280;37953;52.806;18.270;2023-08-20T12:12:00;100949.34;;;28.46;91.70
51928;BME280;37953;52.806;18.270;2023-08-20T12:14:26;100952.59;;;28.51;88.66
51928;BME280;37953;52.806;18.270;2023-08-20T12:16:54;100950.28;;;28.59;92.07
51928;BME280;37953;52.806;18.270;2023-08-20T12:19:26;100941.97;;;28.63;94.11
51928;BME280;37953;52.806;18.270;2023-08-20T12:21:52;100940.72;;;28.69;92.46
51928;BME280;37953;52.806;18.270;2023-08-20T12:24:18;100949.28;;;28.74;91.05
51928;BME280;37953;52.806;18.270;2023-08-20T12:26:47;100937.34;;;28.80;91.04
51928;BME280;37953;52.806;18.270;2023-08-20T12:29:13;100932.44;;;28.87;89.61
51928;BME280;37953;52.806;18.270;2023-08-20T12:31:40;100928.50;;;28.92;89.70
51928;BME280;37953;52.806;18.270;2023-08-20T12:34:06;100934.38;;;28.97;93.32
51928;BME280;37953;52.806;18.270;2023-08-20T12:36:33;100931.63;;;28.99;91.95
51928;BME280;37953;52.806;18.270;2023-08-20T12:38:59;100935.34;;;28.96;91.53
51928;BME280;37953;52.806;18.270;2023-08-20T12:41:26;100933.53;;;28.97;89.22
51928;BME280;37953;52.806;18.270;2023-08-20T12:43:51;100921.22;;;28.94;90.71
51928;BME280;37953;52.806;18.270;2023-08-20T12:46:18;100924.56;;;28.98;92.72
51928;BME280;37953;52.806;18.270;2023-08-20T12:48:44;100918.03;;;29.02;91.62
51928;BME280;37953;52.806;18.270;2023-08-20T12:51:10;100915.25;;;29.03;93.21
51928;BME280;37953;52.806;18.270;2023-08-20T12:53:45;100916.75;;;29.08;92.14
51928;BME280;37953;52.806;18.270;2023-08-20T12:56:11;100918.19;;;29.13;90.97